Aérodrome :
LOGIN :

S'inscrire | Disclaimer

   EN    FR    IT 

 










Légende :    VFR   VFR Marginal   IFR   IFR Intensif   IFR Très Intensif
Visi : 
Plafond : 
>= 8 km
>= 3000ft
5 à 8 km
1000 à 3000 ft
1500m à 5 km
500 à 1000 ft
800 à 1500m
200 à 500 ft
< 800m
< 200 ft
Symboles :   Orages  Brouillard  Fortes neiges  Fortes précipitations  Vent > 20 kt
SIGMETs :   Divers  Orages  Givrage  Turbulence  Onde Orograph.  Cendres Volcan.






- Altitude de l'aérodrome : 1036 ft
- Code IATA : ERF


EDDE - Erfurt

DERNIER METAR :
  • 041620Z 03006KT 350V070 CAVOK 10/M00 Q1025 NOSIG

METARs EXPIRÉS :
  • 041550Z 04005KT 350V080 CAVOK 10/M00 Q1025 NOSIG
  • 041520Z 06005KT 020V130 CAVOK 10/M01 Q1025 NOSIG
  • 041450Z VRB04KT CAVOK 11/00 Q1025 NOSIG
  • 041420Z 35005KT 290V030 9999 FEW043 10/M00 Q1025 NOSIG
  • 041350Z VRB04KT 9999 FEW043 11/M00 Q1025 NOSIG

TAF TAF EDDE
Valide du 04 à 12h jusqu'au 05 à 12h UTC


041100Z 0412/0512 VRB03KT 9999 FEW040
BECMG 0414/0417 09005KT
BECMG 0421/0424 16005KT
BECMG 0507/0510 12010KT



MET'MAP, la Météo Aéronautique d'un coup d'oeil ! - Copyright ORBIFLY Décembre 2007 - Disclaimer

ORBIFLY MET'MAP TEAM :

Programmation & Développement : Alexandra Zaïnal
Sur une idée originale de : Baudouin d'Aumeries
Assistance à la programmation : Marc-Olivier Méhu
Soutien technique & logistique : Manuel Goepfert

Contact : metmap@orbifly.com




SOURCES & CREDITS :

   NOAA